createdAt,value
2018-03-27T00:02:35.050Z,7.42
2018-03-27T00:17:40.417Z,7.45
2018-03-27T00:32:46.175Z,7.44
2018-03-27T00:47:35.295Z,7.47
2018-03-27T01:02:36.648Z,7.48
2018-03-27T01:17:36.582Z,7.42
2018-03-27T01:32:37.527Z,7.45
2018-03-27T02:02:36.401Z,7.44
2018-03-27T02:17:44.294Z,7.43
2018-03-27T02:32:36.688Z,7.45
2018-03-27T02:47:42.707Z,7.44
2018-03-27T03:02:35.602Z,7.37
2018-03-27T03:17:35.112Z,7.27
2018-03-27T03:32:34.959Z,7.16
2018-03-27T04:02:34.782Z,7.17
2018-03-27T04:17:34.220Z,7.07
2018-03-27T04:32:34.113Z,6.97
2018-03-27T04:47:33.636Z,6.90
2018-03-27T05:17:34.850Z,6.71
2018-03-27T05:47:34.788Z,6.61
2018-03-27T06:02:35.821Z,6.65
2018-03-27T06:32:34.565Z,6.80
2018-03-27T06:47:38.186Z,6.85
2018-03-27T07:02:35.453Z,7.19
2018-03-27T07:17:34.958Z,7.27
2018-03-27T07:32:36.262Z,7.05
2018-03-27T07:47:35.685Z,6.88
2018-03-27T08:17:35.040Z,6.34
2018-03-27T08:32:35.453Z,6.50
2018-03-27T09:02:34.871Z,7.48
2018-03-27T09:17:38.705Z,7.98
2018-03-27T09:47:37.062Z,10.29
2018-03-27T10:02:36.995Z,10.83
2018-03-27T10:17:35.464Z,11.80
2018-03-27T10:32:35.308Z,12.74
2018-03-27T11:17:34.627Z,11.01
2018-03-27T11:32:33.548Z,10.62
2018-03-27T12:02:33.971Z,10.63
2018-03-27T12:32:37.737Z,10.82
2018-03-27T12:47:36.621Z,10.67
2018-03-27T13:02:34.663Z,10.46
2018-03-27T13:17:34.989Z,10.15
2018-03-27T13:32:34.885Z,9.95
2018-03-27T14:02:34.811Z,9.12
2018-03-27T14:32:35.093Z,8.81
2018-03-27T14:47:35.040Z,8.99
2018-03-27T15:32:35.884Z,8.37
2018-03-27T16:02:35.702Z,7.99
2018-03-27T16:32:35.020Z,7.62
2018-03-27T16:47:34.536Z,7.35
2018-03-27T17:02:36.547Z,7.01
2018-03-27T17:17:37.949Z,6.77
2018-03-27T17:32:37.889Z,6.62
2018-03-27T17:47:34.860Z,6.51
2018-03-27T18:02:41.727Z,6.45
2018-03-27T18:32:52.179Z,6.26
2018-03-27T18:47:37.778Z,6.41
2018-03-27T19:02:36.747Z,6.53
2018-03-27T19:17:37.312Z,6.72
2018-03-27T19:32:36.209Z,6.88
2018-03-27T19:47:42.513Z,6.92
2018-03-27T20:02:35.146Z,6.94
2018-03-27T20:17:34.528Z,6.99
2018-03-27T20:32:38.719Z,7.00
2018-03-27T20:47:36.851Z,6.99
2018-03-27T21:02:35.754Z,6.94
2018-03-27T21:17:36.723Z,6.86
2018-03-27T21:32:34.607Z,6.83
2018-03-27T21:47:37.569Z,6.80
2018-03-27T22:02:34.528Z,6.79
2018-03-27T22:17:34.908Z,6.82
2018-03-27T22:32:36.374Z,6.82
2018-03-27T22:47:34.780Z,6.79
2018-03-27T23:02:34.691Z,6.70
2018-03-27T23:17:35.058Z,6.52
2018-03-27T23:32:34.599Z,6.48
2018-03-27T23:47:34.978Z,6.43
